sensor_id;sensor_type;location;lat;lon;timestamp;pressure;altitude;pressure_sealevel;temperature;humidity
6567;BME280;3317;43.994;22.878;2023-05-22T00:01:36;100907.31;;;19.49;69.35
6567;BME280;3317;43.994;22.878;2023-05-22T00:04:03;100911.09;;;19.48;69.07
6567;BME280;3317;43.994;22.878;2023-05-22T00:06:30;100908.34;;;19.48;68.76
6567;BME280;3317;43.994;22.878;2023-05-22T00:08:58;100904.75;;;19.47;69.32
6567;BME280;3317;43.994;22.878;2023-05-22T00:11:27;100898.63;;;19.45;69.35
6567;BME280;3317;43.994;22.878;2023-05-22T00:13:54;100894.41;;;19.42;70.65
6567;BME280;3317;43.994;22.878;2023-05-22T00:16:20;100893.53;;;19.42;70.70
6567;BME280;3317;43.994;22.878;2023-05-22T00:18:47;100893.75;;;19.40;70.23
6567;BME280;3317;43.994;22.878;2023-05-22T00:21:14;100902.00;;;19.40;70.69
6567;BME280;3317;43.994;22.878;2023-05-22T00:23:43;100890.38;;;19.38;70.12
6567;BME280;3317;43.994;22.878;2023-05-22T00:26:12;100890.56;;;19.37;70.61
6567;BME280;3317;43.994;22.878;2023-05-22T00:28:41;100900.75;;;19.36;69.48
6567;BME280;3317;43.994;22.878;2023-05-22T00:31:08;100890.38;;;19.32;68.58
6567;BME280;3317;43.994;22.878;2023-05-22T00:33:35;100902.81;;;19.34;68.84
6567;BME280;3317;43.994;22.878;2023-05-22T00:36:02;100903.69;;;19.35;69.98
6567;BME280;3317;43.994;22.878;2023-05-22T00:38:30;100873.63;;;19.20;70.69
6567;BME280;3317;43.994;22.878;2023-05-22T00:40:58;100895.88;;;19.32;71.20
6567;BME280;3317;43.994;22.878;2023-05-22T00:43:25;100882.31;;;19.23;71.65
6567;BME280;3317;43.994;22.878;2023-05-22T00:45:53;100887.19;;;19.28;72.01
6567;BME280;3317;43.994;22.878;2023-05-22T00:48:20;100849.94;;;19.05;71.94
6567;BME280;3317;43.994;22.878;2023-05-22T00:50:47;100882.13;;;19.25;71.74
6567;BME280;3317;43.994;22.878;2023-05-22T00:53:15;100886.75;;;19.24;71.76
6567;BME280;3317;43.994;22.878;2023-05-22T00:55:42;100885.47;;;19.20;71.93
6567;BME280;3317;43.994;22.878;2023-05-22T00:58:14;100893.09;;;19.18;71.51
6567;BME280;3317;43.994;22.878;2023-05-22T01:00:42;100890.53;;;19.17;71.86
6567;BME280;3317;43.994;22.878;2023-05-22T01:03:12;100888.00;;;19.15;71.77
6567;BME280;3317;43.994;22.878;2023-05-22T01:05:40;100887.16;;;19.14;71.87
6567;BME280;3317;43.994;22.878;2023-05-22T01:08:08;100879.97;;;19.07;72.39
6567;BME280;3317;43.994;22.878;2023-05-22T01:10:36;100889.47;;;19.11;72.56
6567;BME280;3317;43.994;22.878;2023-05-22T01:13:11;100885.88;;;19.10;72.55
6567;BME280;3317;43.994;22.878;2023-05-22T01:15:45;100892.63;;;19.08;72.64
6567;BME280;3317;43.994;22.878;2023-05-22T01:18:17;100894.75;;;19.06;72.53
6567;BME280;3317;43.994;22.878;2023-05-22T01:20:51;100893.06;;;19.05;72.17
6567;BME280;3317;43.994;22.878;2023-05-22T01:23:48;100904.03;;;19.05;72.65
6567;BME280;3317;43.994;22.878;2023-05-22T01:26:35;100884.16;;;19.03;71.76
6567;BME280;3317;43.994;22.878;2023-05-22T01:29:14;100886.25;;;19.00;72.21
6567;BME280;3317;43.994;22.878;2023-05-22T01:31:49;100882.03;;;18.98;72.50
6567;BME280;3317;43.994;22.878;2023-05-22T01:34:17;100896.81;;;18.97;72.61
6567;BME280;3317;43.994;22.878;2023-05-22T01:36:46;100894.25;;;18.95;72.30
6567;BME280;3317;43.994;22.878;2023-05-22T01:39:14;100889.81;;;18.94;71.15
6567;BME280;3317;43.994;22.878;2023-05-22T01:41:41;100881.78;;;18.93;71.93
6567;BME280;3317;43.994;22.878;2023-05-22T01:44:09;100870.16;;;18.91;72.31
6567;BME280;3317;43.994;22.878;2023-05-22T01:46:36;100869.28;;;18.90;72.01
6567;BME280;3317;43.994;22.878;2023-05-22T01:49:04;100872.25;;;18.89;72.10
6567;BME280;3317;43.994;22.878;2023-05-22T01:51:41;100880.69;;;18.87;72.06
6567;BME280;3317;43.994;22.878;2023-05-22T01:54:13;100863.56;;;18.78;71.54
6567;BME280;3317;43.994;22.878;2023-05-22T01:56:46;100880.06;;;18.85;71.65
6567;BME280;3317;43.994;22.878;2023-05-22T01:59:20;100878.56;;;18.82;72.37
6567;BME280;3317;43.994;22.878;2023-05-22T02:01:50;100868.59;;;18.75;73.09
6567;BME280;3317;43.994;22.878;2023-05-22T02:04:20;100874.75;;;18.77;72.75
6567;BME280;3317;43.994;22.878;2023-05-22T02:06:50;100870.72;;;18.72;72.57
6567;BME280;3317;43.994;22.878;2023-05-22T02:09:18;100836.88;;;18.52;72.00
6567;BME280;3317;43.994;22.878;2023-05-22T02:11:47;100876.47;;;18.78;72.80
6567;BME280;3317;43.994;22.878;2023-05-22T02:14:15;100877.28;;;18.78;73.35
6567;BME280;3317;43.994;22.878;2023-05-22T02:16:42;100865.88;;;18.75;72.95
6567;BME280;3317;43.994;22.878;2023-05-22T02:19:12;100847.25;;;18.63;71.46
6567;BME280;3317;43.994;22.878;2023-05-22T02:21:41;100866.91;;;18.74;71.57
6567;BME280;3317;43.994;22.878;2023-05-22T02:24:08;100870.94;;;18.71;70.65
6567;BME280;3317;43.994;22.878;2023-05-22T02:26:35;100875.16;;;18.74;71.66
6567;BME280;3317;43.994;22.878;2023-05-22T02:29:04;100891.84;;;18.72;70.52
6567;BME280;3317;43.994;22.878;2023-05-22T02:31:31;100884.41;;;18.66;72.09
6567;BME280;3317;43.994;22.878;2023-05-22T02:33:58;100884.00;;;18.69;71.08
6567;BME280;3317;43.994;22.878;2023-05-22T02:36:25;100884.41;;;18.66;68.65
6567;BME280;3317;43.994;22.878;2023-05-22T02:38:53;100879.13;;;18.64;69.27
6567;BME280;3317;43.994;22.878;2023-05-22T02:41:21;100874.69;;;18.63;68.93
6567;BME280;3317;43.994;22.878;2023-05-22T02:43:48;100876.38;;;18.64;69.62
6567;BME280;3317;43.994;22.878;2023-05-22T02:46:15;100876.38;;;18.64;70.13
6567;BME280;3317;43.994;22.878;2023-05-22T02:48:42;100868.38;;;18.63;70.31
6567;BME280;3317;43.994;22.878;2023-05-22T02:51:10;100879.34;;;18.63;68.61
6567;BME280;3317;43.994;22.878;2023-05-22T02:53:37;100876.16;;;18.59;67.78
6567;BME280;3317;43.994;22.878;2023-05-22T02:56:07;100885.88;;;18.62;69.92
6567;BME280;3317;43.994;22.878;2023-05-22T02:58:35;100883.13;;;18.62;70.66
6567;BME280;3317;43.994;22.878;2023-05-22T03:01:02;100879.09;;;18.57;71.01
6567;BME280;3317;43.994;22.878;2023-05-22T03:03:31;100877.63;;;18.55;72.48
6567;BME280;3317;43.994;22.878;2023-05-22T03:05:58;100871.69;;;18.51;73.33
6567;BME280;3317;43.994;22.878;2023-05-22T03:08:25;100872.94;;;18.49;73.38
6567;BME280;3317;43.994;22.878;2023-05-22T03:10:53;100883.03;;;18.41;74.29
6567;BME280;3317;43.994;22.878;2023-05-22T03:13:21;100878.75;;;18.32;74.80
6567;BME280;3317;43.994;22.878;2023-05-22T03:15:48;100878.31;;;18.28;75.27
6567;BME280;3317;43.994;22.878;2023-05-22T03:18:15;100870.69;;;18.24;75.41
6567;BME280;3317;43.994;22.878;2023-05-22T03:20:42;100881.88;;;18.22;75.84
6567;BME280;3317;43.994;22.878;2023-05-22T03:23:10;100880.50;;;18.11;76.82
6567;BME280;3317;43.994;22.878;2023-05-22T03:25:37;100870.47;;;17.97;77.37
6567;BME280;3317;43.994;22.878;2023-05-22T03:28:04;100876.38;;;17.94;78.12
6567;BME280;3317;43.994;22.878;2023-05-22T03:30:33;100882.25;;;17.91;78.27
6567;BME280;3317;43.994;22.878;2023-05-22T03:32:59;100876.97;;;17.89;78.46
6567;BME280;3317;43.994;22.878;2023-05-22T03:35:26;100882.91;;;17.93;77.94
6567;BME280;3317;43.994;22.878;2023-05-22T03:37:53;100876.13;;;17.88;78.02
6567;BME280;3317;43.994;22.878;2023-05-22T03:40:21;100888.19;;;17.94;75.65
6567;BME280;3317;43.994;22.878;2023-05-22T03:42:48;100895.16;;;17.97;74.16
6567;BME280;3317;43.994;22.878;2023-05-22T03:45:15;100893.06;;;17.99;72.93
6567;BME280;3317;43.994;22.878;2023-05-22T03:47:44;100893.72;;;18.01;73.12
6567;BME280;3317;43.994;22.878;2023-05-22T03:50:11;100888.25;;;18.01;73.37
6567;BME280;3317;43.994;22.878;2023-05-22T03:52:38;100894.19;;;18.05;75.08
6567;BME280;3317;43.994;22.878;2023-05-22T03:55:06;100897.59;;;18.07;73.63
6567;BME280;3317;43.994;22.878;2023-05-22T03:57:35;100901.81;;;18.09;74.36
6567;BME280;3317;43.994;22.878;2023-05-22T04:00:02;100880.28;;;18.06;75.12
6567;BME280;3317;43.994;22.878;2023-05-22T04:02:34;100903.78;;;18.15;75.63
6567;BME280;3317;43.994;22.878;2023-05-22T04:05:07;100895.31;;;18.17;72.67
6567;BME280;3317;43.994;22.878;2023-05-22T04:07:35;100908.84;;;18.19;71.36
6567;BME280;3317;43.994;22.878;2023-05-22T04:10:02;100912.22;;;18.21;72.36
6567;BME280;3317;43.994;22.878;2023-05-22T04:12:30;100907.38;;;18.23;73.12
6567;BME280;3317;43.994;22.878;2023-05-22T04:14:57;100908.69;;;18.27;75.09
6567;BME280;3317;43.994;22.878;2023-05-22T04:17:29;100913.13;;;18.28;74.06
6567;BME280;3317;43.994;22.878;2023-05-22T04:19:56;100913.56;;;18.32;73.66
6567;BME280;3317;43.994;22.878;2023-05-22T04:22:25;100910.22;;;18.36;74.85
6567;BME280;3317;43.994;22.878;2023-05-22T04:24:55;100901.13;;;18.29;74.43
6567;BME280;3317;43.994;22.878;2023-05-22T04:27:22;100907.50;;;18.43;75.67
6567;BME280;3317;43.994;22.878;2023-05-22T04:29:49;100910.97;;;18.52;75.08
6567;BME280;3317;43.994;22.878;2023-05-22T04:32:16;100902.75;;;18.58;75.07
6567;BME280;3317;43.994;22.878;2023-05-22T04:34:48;100897.91;;;18.61;75.75
6567;BME280;3317;43.994;22.878;2023-05-22T04:37:15;100908.31;;;18.72;75.63
6567;BME280;3317;43.994;22.878;2023-05-22T04:39:44;100905.59;;;18.79;75.55
6567;BME280;3317;43.994;22.878;2023-05-22T04:42:11;100913.88;;;18.85;74.34
6567;BME280;3317;43.994;22.878;2023-05-22T04:44:39;100915.97;;;18.90;74.19
6567;BME280;3317;43.994;22.878;2023-05-22T04:47:06;100899.91;;;18.87;74.78
6567;BME280;3317;43.994;22.878;2023-05-22T04:49:36;100910.16;;;19.00;74.54
6567;BME280;3317;43.994;22.878;2023-05-22T04:52:04;100915.03;;;19.05;74.83
6567;BME280;3317;43.994;22.878;2023-05-22T04:54:32;100913.38;;;19.17;74.65
6567;BME280;3317;43.994;22.878;2023-05-22T04:57:00;100910.84;;;19.29;75.27
6567;BME280;3317;43.994;22.878;2023-05-22T04:59:30;100907.69;;;19.39;74.59
6567;BME280;3317;43.994;22.878;2023-05-22T05:01:57;100908.78;;;19.51;73.81
6567;BME280;3317;43.994;22.878;2023-05-22T05:04:25;100909.41;;;19.67;73.85
6567;BME280;3317;43.994;22.878;2023-05-22T05:06:52;100908.78;;;19.78;73.54
6567;BME280;3317;43.994;22.878;2023-05-22T05:09:19;100905.41;;;19.83;72.63
6567;BME280;3317;43.994;22.878;2023-05-22T05:11:46;100903.53;;;19.83;71.11
6567;BME280;3317;43.994;22.878;2023-05-22T05:14:15;100912.44;;;19.99;70.44
6567;BME280;3317;43.994;22.878;2023-05-22T05:16:42;100916.00;;;20.13;69.92
6567;BME280;3317;43.994;22.878;2023-05-22T05:19:09;100918.97;;;20.25;69.57
6567;BME280;3317;43.994;22.878;2023-05-22T05:21:36;100918.31;;;20.36;69.71
6567;BME280;3317;43.994;22.878;2023-05-22T05:24:02;100917.00;;;20.39;69.54
6567;BME280;3317;43.994;22.878;2023-05-22T05:26:29;100910.03;;;20.50;68.94
6567;BME280;3317;43.994;22.878;2023-05-22T05:28:56;100914.84;;;20.61;68.23
6567;BME280;3317;43.994;22.878;2023-05-22T05:31:25;100917.97;;;20.72;67.93
6567;BME280;3317;43.994;22.878;2023-05-22T05:33:51;100920.53;;;20.73;68.11
6567;BME280;3317;43.994;22.878;2023-05-22T05:36:22;100922.63;;;20.78;67.60
6567;BME280;3317;43.994;22.878;2023-05-22T05:38:50;100919.03;;;20.84;67.36
6567;BME280;3317;43.994;22.878;2023-05-22T05:41:16;100926.63;;;20.89;67.02
6567;BME280;3317;43.994;22.878;2023-05-22T05:43:44;100923.47;;;20.92;67.21
6567;BME280;3317;43.994;22.878;2023-05-22T05:46:11;100927.22;;;20.98;66.49
6567;BME280;3317;43.994;22.878;2023-05-22T05:48:40;100923.41;;;21.05;66.32
6567;BME280;3317;43.994;22.878;2023-05-22T05:51:06;100923.78;;;21.09;66.55
6567;BME280;3317;43.994;22.878;2023-05-22T05:53:33;100924.19;;;21.13;66.93
6567;BME280;3317;43.994;22.878;2023-05-22T05:56:01;100870.53;;;20.83;66.99
6567;BME280;3317;43.994;22.878;2023-05-22T05:58:28;100923.28;;;21.26;66.11
6567;BME280;3317;43.994;22.878;2023-05-22T06:00:55;100926.22;;;21.31;65.40
6567;BME280;3317;43.994;22.878;2023-05-22T06:03:22;100928.53;;;21.34;65.56
6567;BME280;3317;43.994;22.878;2023-05-22T06:05:52;100914.38;;;21.30;65.92
6567;BME280;3317;43.994;22.878;2023-05-22T06:08:19;100930.81;;;21.44;66.00
6567;BME280;3317;43.994;22.878;2023-05-22T06:10:46;100926.53;;;21.48;65.80
6567;BME280;3317;43.994;22.878;2023-05-22T06:13:13;100918.94;;;21.43;65.67
6567;BME280;3317;43.994;22.878;2023-05-22T06:15:40;100934.16;;;21.52;65.39
6567;BME280;3317;43.994;22.878;2023-05-22T06:18:07;100929.09;;;21.49;64.63
6567;BME280;3317;43.994;22.878;2023-05-22T06:20:34;100944.84;;;21.35;64.15
6567;BME280;3317;43.994;22.878;2023-05-22T06:23:02;100934.75;;;21.22;63.97
6567;BME280;3317;43.994;22.878;2023-05-22T06:25:29;100937.69;;;21.28;64.21
6567;BME280;3317;43.994;22.878;2023-05-22T06:27:56;100932.63;;;21.24;64.91
6567;BME280;3317;43.994;22.878;2023-05-22T06:30:23;100932.72;;;21.11;65.10
6567;BME280;3317;43.994;22.878;2023-05-22T06:32:50;100935.88;;;21.08;65.81
6567;BME280;3317;43.994;22.878;2023-05-22T06:35:17;100932.72;;;21.11;66.13
6567;BME280;3317;43.994;22.878;2023-05-22T06:37:44;100940.34;;;21.02;66.55
6567;BME280;3317;43.994;22.878;2023-05-22T06:40:13;100936.75;;;21.02;65.72
6567;BME280;3317;43.994;22.878;2023-05-22T06:42:41;100939.09;;;20.98;66.00
6567;BME280;3317;43.994;22.878;2023-05-22T06:45:09;100937.88;;;20.94;66.47
6567;BME280;3317;43.994;22.878;2023-05-22T06:47:36;100944.19;;;20.94;66.29
6567;BME280;3317;43.994;22.878;2023-05-22T06:50:04;100941.88;;;20.98;66.59
6567;BME280;3317;43.994;22.878;2023-05-22T06:52:31;100953.13;;;20.83;67.07
6567;BME280;3317;43.994;22.878;2023-05-22T06:54:59;100950.66;;;20.61;67.04
6567;BME280;3317;43.994;22.878;2023-05-22T06:57:31;100941.56;;;20.40;67.70
6567;BME280;3317;43.994;22.878;2023-05-22T06:59:58;100946.91;;;20.35;68.85
6567;BME280;3317;43.994;22.878;2023-05-22T07:02:25;100936.31;;;20.25;69.50
6567;BME280;3317;43.994;22.878;2023-05-22T07:04:52;100949.03;;;20.33;70.08
6567;BME280;3317;43.994;22.878;2023-05-22T07:07:19;100938.19;;;20.38;70.33
6567;BME280;3317;43.994;22.878;2023-05-22T07:09:46;100937.13;;;20.39;70.72
6567;BME280;3317;43.994;22.878;2023-05-22T07:12:13;100914.75;;;20.02;71.80
6567;BME280;3317;43.994;22.878;2023-05-22T07:14:42;100949.44;;;20.30;71.87
6567;BME280;3317;43.994;22.878;2023-05-22T07:17:08;100948.34;;;20.38;71.49
6567;BME280;3317;43.994;22.878;2023-05-22T07:19:35;100939.88;;;20.39;72.09
6567;BME280;3317;43.994;22.878;2023-05-22T07:22:02;100943.03;;;20.57;72.34
6567;BME280;3317;43.994;22.878;2023-05-22T07:24:30;100941.13;;;20.57;71.21
6567;BME280;3317;43.994;22.878;2023-05-22T07:26:56;100934.28;;;20.80;70.90
6567;BME280;3317;43.994;22.878;2023-05-22T07:29:23;100940.28;;;21.16;70.55
6567;BME280;3317;43.994;22.878;2023-05-22T07:31:52;100937.81;;;21.39;69.46
6567;BME280;3317;43.994;22.878;2023-05-22T07:34:19;100929.22;;;21.61;67.95
6567;BME280;3317;43.994;22.878;2023-05-22T07:36:46;100922.00;;;21.92;67.17
6567;BME280;3317;43.994;22.878;2023-05-22T07:39:13;100916.94;;;22.33;66.96
6567;BME280;3317;43.994;22.878;2023-05-22T07:41:46;100921.44;;;22.72;65.11
6567;BME280;3317;43.994;22.878;2023-05-22T07:44:14;100918.47;;;23.04;63.10
6567;BME280;3317;43.994;22.878;2023-05-22T07:46:41;100934.06;;;23.47;63.47
6567;BME280;3317;43.994;22.878;2023-05-22T07:49:10;100912.88;;;23.84;64.36
6567;BME280;3317;43.994;22.878;2023-05-22T07:51:37;100922.03;;;24.20;59.76
6567;BME280;3317;43.994;22.878;2023-05-22T07:54:05;100922.63;;;24.58;60.81
6567;BME280;3317;43.994;22.878;2023-05-22T07:56:32;100925.25;;;24.88;58.39
6567;BME280;3317;43.994;22.878;2023-05-22T07:59:02;100926.06;;;25.18;56.69
6567;BME280;3317;43.994;22.878;2023-05-22T08:01:29;100931.81;;;25.28;51.94
6567;BME280;3317;43.994;22.878;2023-05-22T08:03:56;100887.88;;;25.20;52.71
6567;BME280;3317;43.994;22.878;2023-05-22T08:06:24;100919.50;;;25.65;51.96
6567;BME280;3317;43.994;22.878;2023-05-22T08:08:51;100932.44;;;26.11;53.18
6567;BME280;3317;43.994;22.878;2023-05-22T08:11:18;100922.69;;;26.25;50.41
6567;BME280;3317;43.994;22.878;2023-05-22T08:13:45;100935.09;;;26.40;47.57
6567;BME280;3317;43.994;22.878;2023-05-22T08:16:12;100933.50;;;26.44;48.54
6567;BME280;3317;43.994;22.878;2023-05-22T08:18:39;100932.25;;;26.74;49.39
6567;BME280;3317;43.994;22.878;2023-05-22T08:21:06;100933.69;;;26.77;44.98
6567;BME280;3317;43.994;22.878;2023-05-22T08:23:34;100926.63;;;26.69;45.33
6567;BME280;3317;43.994;22.878;2023-05-22T08:26:03;100917.81;;;26.99;48.91
6567;BME280;3317;43.994;22.878;2023-05-22T08:28:30;100917.94;;;27.32;45.12
6567;BME280;3317;43.994;22.878;2023-05-22T08:30:57;100921.25;;;27.57;44.75
6567;BME280;3317;43.994;22.878;2023-05-22T08:33:24;100912.31;;;27.87;45.09
6567;BME280;3317;43.994;22.878;2023-05-22T08:35:51;100915.38;;;28.23;44.95
6567;BME280;3317;43.994;22.878;2023-05-22T08:38:18;100921.38;;;28.48;43.54
6567;BME280;3317;43.994;22.878;2023-05-22T08:40:47;100919.47;;;28.59;42.44
6567;BME280;3317;43.994;22.878;2023-05-22T08:43:15;100914.78;;;28.21;41.45
6567;BME280;3317;43.994;22.878;2023-05-22T08:45:42;100921.84;;;28.34;43.66
6567;BME280;3317;43.994;22.878;2023-05-22T08:48:29;100932.56;;;28.15;39.83
6567;BME280;3317;43.994;22.878;2023-05-22T08:50:57;100924.09;;;28.00;38.80
6567;BME280;3317;43.994;22.878;2023-05-22T08:53:27;100925.22;;;27.99;38.33
6567;BME280;3317;43.994;22.878;2023-05-22T08:55:55;100919.03;;;27.96;36.95
6567;BME280;3317;43.994;22.878;2023-05-22T08:58:23;100915.44;;;28.34;38.74
6567;BME280;3317;43.994;22.878;2023-05-22T09:00:51;100892.06;;;28.40;38.29
6567;BME280;3317;43.994;22.878;2023-05-22T09:03:18;100927.31;;;28.72;36.33
6567;BME280;3317;43.994;22.878;2023-05-22T09:05:46;100921.28;;;28.86;36.62
6567;BME280;3317;43.994;22.878;2023-05-22T09:08:13;100920.19;;;28.97;36.01
6567;BME280;3317;43.994;22.878;2023-05-22T09:10:41;100923.59;;;29.04;36.20
6567;BME280;3317;43.994;22.878;2023-05-22T09:13:09;100907.69;;;29.05;37.24
6567;BME280;3317;43.994;22.878;2023-05-22T09:15:42;100926.94;;;29.12;35.79
6567;BME280;3317;43.994;22.878;2023-05-22T09:18:09;100908.69;;;28.78;34.99
6567;BME280;3317;43.994;22.878;2023-05-22T09:20:37;100916.19;;;28.72;36.02
6567;BME280;3317;43.994;22.878;2023-05-22T09:23:10;100859.19;;;28.47;37.09
6567;BME280;3317;43.994;22.878;2023-05-22T09:25:40;100912.88;;;28.80;37.20
6567;BME280;3317;43.994;22.878;2023-05-22T09:28:10;100918.78;;;28.84;37.40
6567;BME280;3317;43.994;22.878;2023-05-22T09:30:37;100914.44;;;28.50;36.90
6567;BME280;3317;43.994;22.878;2023-05-22T09:33:07;100916.88;;;28.42;37.79
6567;BME280;3317;43.994;22.878;2023-05-22T09:35:34;100921.84;;;28.34;38.46
6567;BME280;3317;43.994;22.878;2023-05-22T09:38:03;100904.72;;;28.15;38.23
6567;BME280;3317;43.994;22.878;2023-05-22T09:40:32;100922.59;;;28.19;38.74
6567;BME280;3317;43.994;22.878;2023-05-22T09:43:01;100903.53;;;28.06;38.93
6567;BME280;3317;43.994;22.878;2023-05-22T09:45:35;100903.03;;;28.14;40.19
6567;BME280;3317;43.994;22.878;2023-05-22T09:48:02;100906.66;;;28.15;39.28
6567;BME280;3317;43.994;22.878;2023-05-22T09:50:29;100895.09;;;28.33;40.23
6567;BME280;3317;43.994;22.878;2023-05-22T09:52:56;100890.41;;;28.39;39.93
6567;BME280;3317;43.994;22.878;2023-05-22T09:55:26;100900.75;;;28.44;39.28
6567;BME280;3317;43.994;22.878;2023-05-22T09:57:55;100889.22;;;28.30;38.98
6567;BME280;3317;43.994;22.878;2023-05-22T10:00:22;100897.16;;;28.59;40.10
6567;BME280;3317;43.994;22.878;2023-05-22T10:02:56;100862.84;;;28.43;38.87
6567;BME280;3317;43.994;22.878;2023-05-22T10:05:30;100905.63;;;28.79;39.61
6567;BME280;3317;43.994;22.878;2023-05-22T10:08:08;100897.16;;;28.59;38.34
6567;BME280;3317;43.994;22.878;2023-05-22T10:10:37;100888.81;;;28.16;39.42
6567;BME280;3317;43.994;22.878;2023-05-22T10:13:04;100892.56;;;28.27;39.86
6567;BME280;3317;43.994;22.878;2023-05-22T10:15:32;100884.81;;;27.96;38.90
6567;BME280;3317;43.994;22.878;2023-05-22T10:18:02;100890.28;;;28.18;40.38
6567;BME280;3317;43.994;22.878;2023-05-22T10:20:29;100888.25;;;28.57;40.12
6567;BME280;3317;43.994;22.878;2023-05-22T10:22:57;100888.09;;;28.89;39.97
6567;BME280;3317;43.994;22.878;2023-05-22T10:25:25;100889.59;;;29.28;39.53
6567;BME280;3317;43.994;22.878;2023-05-22T10:27:52;100869.06;;;28.76;37.06
6567;BME280;3317;43.994;22.878;2023-05-22T10:30:23;100883.88;;;28.76;37.74
6567;BME280;3317;43.994;22.878;2023-05-22T10:32:56;100884.22;;;28.90;38.80
6567;BME280;3317;43.994;22.878;2023-05-22T10:35:32;100875.03;;;28.90;37.31
6567;BME280;3317;43.994;22.878;2023-05-22T10:38:16;100882.16;;;28.65;37.56
6567;BME280;3317;43.994;22.878;2023-05-22T10:40:47;100878.81;;;28.63;37.53
6567;BME280;3317;43.994;22.878;2023-05-22T10:43:14;100873.25;;;28.73;38.24
6567;BME280;3317;43.994;22.878;2023-05-22T10:45:43;100873.94;;;29.06;37.88
6567;BME280;3317;43.994;22.878;2023-05-22T10:48:10;100879.38;;;28.70;36.58
6567;BME280;3317;43.994;22.878;2023-05-22T10:50:40;100863.75;;;28.69;37.08
6567;BME280;3317;43.994;22.878;2023-05-22T10:53:20;100859.25;;;28.52;37.34
6567;BME280;3317;43.994;22.878;2023-05-22T10:55:48;100858.63;;;28.40;37.63
6567;BME280;3317;43.994;22.878;2023-05-22T10:58:15;100850.81;;;28.37;38.30
6567;BME280;3317;43.994;22.878;2023-05-22T11:00:42;100853.59;;;28.37;38.13
6567;BME280;3317;43.994;22.878;2023-05-22T11:03:10;100840.78;;;28.41;38.33
6567;BME280;3317;43.994;22.878;2023-05-22T11:05:39;100844.72;;;28.45;37.60
6567;BME280;3317;43.994;22.878;2023-05-22T11:08:11;100836.72;;;28.80;37.83
6567;BME280;3317;43.994;22.878;2023-05-22T11:11:09;100830.94;;;28.97;37.32
6567;BME280;3317;43.994;22.878;2023-05-22T11:13:37;100826.34;;;28.55;37.04
6567;BME280;3317;43.994;22.878;2023-05-22T11:16:04;100836.28;;;28.24;36.90
6567;BME280;3317;43.994;22.878;2023-05-22T11:18:31;100828.22;;;28.33;38.18
6567;BME280;3317;43.994;22.878;2023-05-22T11:21:00;100819.91;;;28.44;37.73
6567;BME280;3317;43.994;22.878;2023-05-22T11:23:33;100818.28;;;28.58;37.30
6567;BME280;3317;43.994;22.878;2023-05-22T11:26:17;100805.66;;;28.35;37.38
6567;BME280;3317;43.994;22.878;2023-05-22T11:28:48;100817.00;;;28.18;37.66
6567;BME280;3317;43.994;22.878;2023-05-22T11:31:16;100813.94;;;28.19;37.71
6567;BME280;3317;43.994;22.878;2023-05-22T11:33:44;100821.94;;;28.10;38.28
6567;BME280;3317;43.994;22.878;2023-05-22T11:36:13;100812.78;;;28.10;38.14
6567;BME280;3317;43.994;22.878;2023-05-22T11:38:41;100818.91;;;28.12;38.59
6567;BME280;3317;43.994;22.878;2023-05-22T11:41:08;100816.53;;;28.31;37.66
6567;BME280;3317;43.994;22.878;2023-05-22T11:43:36;100806.25;;;28.42;38.08
6567;BME280;3317;43.994;22.878;2023-05-22T11:46:07;100799.44;;;28.97;38.37
6567;BME280;3317;43.994;22.878;2023-05-22T11:48:35;100765.41;;;29.05;38.02
6567;BME280;3317;43.994;22.878;2023-05-22T11:51:02;100800.31;;;29.49;37.06
6567;BME280;3317;43.994;22.878;2023-05-22T11:53:31;100798.34;;;29.65;36.78
6567;BME280;3317;43.994;22.878;2023-05-22T11:56:03;100796.97;;;29.16;36.25
6567;BME280;3317;43.994;22.878;2023-05-22T11:58:31;100797.75;;;28.90;37.09
6567;BME280;3317;43.994;22.878;2023-05-22T12:01:00;100796.38;;;28.98;37.84
6567;BME280;3317;43.994;22.878;2023-05-22T12:03:28;100781.03;;;29.06;37.48
6567;BME280;3317;43.994;22.878;2023-05-22T12:05:55;100794.97;;;29.06;37.10
6567;BME280;3317;43.994;22.878;2023-05-22T12:08:24;100789.84;;;28.56;37.53
6567;BME280;3317;43.994;22.878;2023-05-22T12:10:53;100783.69;;;28.49;37.82
6567;BME280;3317;43.994;22.878;2023-05-22T12:13:22;100777.16;;;28.17;37.72
6567;BME280;3317;43.994;22.878;2023-05-22T12:15:51;100786.09;;;28.19;38.06
6567;BME280;3317;43.994;22.878;2023-05-22T12:18:18;100757.63;;;28.12;38.40
6567;BME280;3317;43.994;22.878;2023-05-22T12:20:45;100758.34;;;28.50;38.95
6567;BME280;3317;43.994;22.878;2023-05-22T12:23:19;100763.63;;;28.47;37.75
6567;BME280;3317;43.994;22.878;2023-05-22T12:25:56;100765.09;;;28.75;37.84
6567;BME280;3317;43.994;22.878;2023-05-22T12:28:24;100758.34;;;28.50;36.70
6567;BME280;3317;43.994;22.878;2023-05-22T12:30:51;100744.38;;;28.40;37.35
6567;BME280;3317;43.994;22.878;2023-05-22T12:33:19;100744.41;;;28.50;38.00
6567;BME280;3317;43.994;22.878;2023-05-22T12:35:49;100742.16;;;28.37;37.54
6567;BME280;3317;43.994;22.878;2023-05-22T12:38:20;100738.50;;;28.42;38.63
6567;BME280;3317;43.994;22.878;2023-05-22T12:40:47;100748.81;;;28.31;38.47
6567;BME280;3317;43.994;22.878;2023-05-22T12:43:16;100739.31;;;28.27;37.99
6567;BME280;3317;43.994;22.878;2023-05-22T12:45:43;100741.75;;;28.13;38.83
6567;BME280;3317;43.994;22.878;2023-05-22T12:48:10;100737.47;;;27.89;38.56
6567;BME280;3317;43.994;22.878;2023-05-22T12:50:37;100735.38;;;27.64;38.96
6567;BME280;3317;43.994;22.878;2023-05-22T12:53:05;100731.81;;;27.74;39.33
6567;BME280;3317;43.994;22.878;2023-05-22T12:55:32;100726.22;;;27.68;39.09
6567;BME280;3317;43.994;22.878;2023-05-22T12:58:00;100726.03;;;27.42;39.22
6567;BME280;3317;43.994;22.878;2023-05-22T13:00:28;100718.91;;;27.57;40.04
6567;BME280;3317;43.994;22.878;2023-05-22T13:02:55;100723.09;;;27.60;38.48
6567;BME280;3317;43.994;22.878;2023-05-22T13:05:22;100721.97;;;27.55;38.27
6567;BME280;3317;43.994;22.878;2023-05-22T13:07:50;100709.56;;;27.36;38.32